sensor_id;sensor_type;location;lat;lon;timestamp;P1;durP1;ratioP1;P2;durP2;ratioP2
6828;SDS011;17930;48.592;8.868;2023-03-14T00:01:21;1.80;;;1.00;;
6828;SDS011;17930;48.592;8.868;2023-03-14T00:03:48;2.10;;;1.07;;
6828;SDS011;17930;48.592;8.868;2023-03-14T00:06:17;1.03;;;0.63;;
6828;SDS011;17930;48.592;8.868;2023-03-14T00:08:44;0.93;;;0.60;;
6828;SDS011;17930;48.592;8.868;2023-03-14T00:11:12;1.07;;;0.60;;
6828;SDS011;17930;48.592;8.868;2023-03-14T00:13:40;2.10;;;0.80;;
6828;SDS011;17930;48.592;8.868;2023-03-14T00:16:09;1.00;;;0.67;;
6828;SDS011;17930;48.592;8.868;2023-03-14T00:18:38;2.53;;;0.87;;
6828;SDS011;17930;48.592;8.868;2023-03-14T00:21:06;0.80;;;0.60;;
6828;SDS011;17930;48.592;8.868;2023-03-14T00:23:34;1.20;;;0.60;;
6828;SDS011;17930;48.592;8.868;2023-03-14T00:26:03;1.63;;;0.80;;
6828;SDS011;17930;48.592;8.868;2023-03-14T00:28:30;1.60;;;0.77;;
6828;SDS011;17930;48.592;8.868;2023-03-14T00:30:57;2.30;;;0.90;;
6828;SDS011;17930;48.592;8.868;2023-03-14T00:33:25;4.67;;;0.93;;
6828;SDS011;17930;48.592;8.868;2023-03-14T00:35:53;2.43;;;1.10;;
6828;SDS011;17930;48.592;8.868;2023-03-14T00:38:20;1.57;;;0.80;;
6828;SDS011;17930;48.592;8.868;2023-03-14T00:40:47;2.67;;;0.93;;
6828;SDS011;17930;48.592;8.868;2023-03-14T00:43:13;1.70;;;0.83;;
6828;SDS011;17930;48.592;8.868;2023-03-14T00:45:40;3.27;;;1.00;;
6828;SDS011;17930;48.592;8.868;2023-03-14T00:48:07;2.30;;;0.80;;
6828;SDS011;17930;48.592;8.868;2023-03-14T00:50:35;2.77;;;1.10;;
6828;SDS011;17930;48.592;8.868;2023-03-14T00:53:01;1.97;;;0.90;;
6828;SDS011;17930;48.592;8.868;2023-03-14T00:55:28;1.77;;;0.83;;
6828;SDS011;17930;48.592;8.868;2023-03-14T00:57:54;2.27;;;0.90;;
6828;SDS011;17930;48.592;8.868;2023-03-14T01:00:21;2.60;;;0.63;;
6828;SDS011;17930;48.592;8.868;2023-03-14T01:02:48;0.87;;;0.63;;
6828;SDS011;17930;48.592;8.868;2023-03-14T01:05:15;0.80;;;0.50;;
6828;SDS011;17930;48.592;8.868;2023-03-14T01:07:43;1.97;;;0.80;;
6828;SDS011;17930;48.592;8.868;2023-03-14T01:10:10;1.00;;;0.50;;
6828;SDS011;17930;48.592;8.868;2023-03-14T01:12:37;1.10;;;0.50;;
6828;SDS011;17930;48.592;8.868;2023-03-14T01:15:04;1.37;;;0.53;;
6828;SDS011;17930;48.592;8.868;2023-03-14T01:17:31;0.70;;;0.50;;
6828;SDS011;17930;48.592;8.868;2023-03-14T01:19:58;0.40;;;0.33;;
6828;SDS011;17930;48.592;8.868;2023-03-14T01:22:25;0.40;;;0.40;;
6828;SDS011;17930;48.592;8.868;2023-03-14T01:24:53;3.03;;;0.37;;
6828;SDS011;17930;48.592;8.868;2023-03-14T01:27:20;1.27;;;0.53;;
6828;SDS011;17930;48.592;8.868;2023-03-14T01:29:47;1.30;;;0.60;;
6828;SDS011;17930;48.592;8.868;2023-03-14T01:32:13;0.47;;;0.37;;
6828;SDS011;17930;48.592;8.868;2023-03-14T01:34:43;2.87;;;0.80;;
6828;SDS011;17930;48.592;8.868;2023-03-14T01:37:10;0.43;;;0.40;;
6828;SDS011;17930;48.592;8.868;2023-03-14T01:39:37;0.73;;;0.30;;
6828;SDS011;17930;48.592;8.868;2023-03-14T01:42:05;0.50;;;0.40;;
6828;SDS011;17930;48.592;8.868;2023-03-14T01:44:46;0.40;;;0.40;;
6828;SDS011;17930;48.592;8.868;2023-03-14T01:47:13;1.23;;;0.70;;
6828;SDS011;17930;48.592;8.868;2023-03-14T01:49:43;2.83;;;0.50;;
6828;SDS011;17930;48.592;8.868;2023-03-14T01:52:13;1.60;;;0.40;;
6828;SDS011;17930;48.592;8.868;2023-03-14T01:54:43;0.67;;;0.37;;
6828;SDS011;17930;48.592;8.868;2023-03-14T01:57:17;0.60;;;0.40;;
6828;SDS011;17930;48.592;8.868;2023-03-14T01:59:48;3.20;;;0.60;;
6828;SDS011;17930;48.592;8.868;2023-03-14T02:02:19;0.73;;;0.40;;
6828;SDS011;17930;48.592;8.868;2023-03-14T02:04:50;0.40;;;0.40;;
6828;SDS011;17930;48.592;8.868;2023-03-14T02:07:18;0.60;;;0.30;;
6828;SDS011;17930;48.592;8.868;2023-03-14T02:09:48;2.17;;;0.40;;
6828;SDS011;17930;48.592;8.868;2023-03-14T02:12:16;0.73;;;0.40;;
6828;SDS011;17930;48.592;8.868;2023-03-14T02:14:44;0.43;;;0.30;;
6828;SDS011;17930;48.592;8.868;2023-03-14T02:17:13;0.40;;;0.30;;
6828;SDS011;17930;48.592;8.868;2023-03-14T02:19:52;2.10;;;0.37;;
6828;SDS011;17930;48.592;8.868;2023-03-14T02:22:33;0.70;;;0.47;;
6828;SDS011;17930;48.592;8.868;2023-03-14T02:25:03;0.53;;;0.40;;
6828;SDS011;17930;48.592;8.868;2023-03-14T02:27:35;1.90;;;0.57;;
6828;SDS011;17930;48.592;8.868;2023-03-14T02:30:03;1.40;;;0.50;;
6828;SDS011;17930;48.592;8.868;2023-03-14T02:32:34;0.53;;;0.40;;
6828;SDS011;17930;48.592;8.868;2023-03-14T02:35:06;1.83;;;0.50;;
6828;SDS011;17930;48.592;8.868;2023-03-14T02:37:36;2.10;;;0.50;;
6828;SDS011;17930;48.592;8.868;2023-03-14T02:40:08;1.80;;;0.50;;
6828;SDS011;17930;48.592;8.868;2023-03-14T02:42:36;0.70;;;0.50;;
6828;SDS011;17930;48.592;8.868;2023-03-14T02:48:04;0.43;;;0.43;;
6828;SDS011;17930;48.592;8.868;2023-03-14T02:50:35;1.00;;;0.60;;
6828;SDS011;17930;48.592;8.868;2023-03-14T02:53:01;0.83;;;0.60;;
6828;SDS011;17930;48.592;8.868;2023-03-14T02:55:28;1.43;;;0.77;;
6828;SDS011;17930;48.592;8.868;2023-03-14T02:57:56;2.30;;;1.00;;
6828;SDS011;17930;48.592;8.868;2023-03-14T03:00:23;4.20;;;0.80;;
6828;SDS011;17930;48.592;8.868;2023-03-14T03:02:49;3.00;;;0.60;;
6828;SDS011;17930;48.592;8.868;2023-03-14T03:05:17;1.00;;;0.50;;
6828;SDS011;17930;48.592;8.868;2023-03-14T03:07:43;2.57;;;0.60;;
6828;SDS011;17930;48.592;8.868;2023-03-14T03:10:10;1.13;;;0.80;;
6828;SDS011;17930;48.592;8.868;2023-03-14T03:12:37;3.60;;;0.90;;
6828;SDS011;17930;48.592;8.868;2023-03-14T03:15:06;3.90;;;0.73;;
6828;SDS011;17930;48.592;8.868;2023-03-14T03:17:33;1.10;;;0.50;;
6828;SDS011;17930;48.592;8.868;2023-03-14T03:20:00;6.47;;;0.60;;
6828;SDS011;17930;48.592;8.868;2023-03-14T03:22:26;2.73;;;0.60;;
6828;SDS011;17930;48.592;8.868;2023-03-14T03:24:53;3.17;;;0.70;;
6828;SDS011;17930;48.592;8.868;2023-03-14T03:27:20;2.30;;;0.60;;
6828;SDS011;17930;48.592;8.868;2023-03-14T03:29:46;1.33;;;0.93;;
6828;SDS011;17930;48.592;8.868;2023-03-14T03:32:15;2.87;;;0.60;;
6828;SDS011;17930;48.592;8.868;2023-03-14T03:34:41;3.63;;;0.60;;
6828;SDS011;17930;48.592;8.868;2023-03-14T03:37:08;1.07;;;0.50;;
6828;SDS011;17930;48.592;8.868;2023-03-14T03:39:34;2.03;;;0.97;;
6828;SDS011;17930;48.592;8.868;2023-03-14T03:42:01;3.17;;;0.83;;
6828;SDS011;17930;48.592;8.868;2023-03-14T03:44:27;3.07;;;0.80;;
6828;SDS011;17930;48.592;8.868;2023-03-14T03:46:54;1.67;;;0.40;;
6828;SDS011;17930;48.592;8.868;2023-03-14T03:49:22;0.90;;;0.47;;
6828;SDS011;17930;48.592;8.868;2023-03-14T03:51:49;0.87;;;0.63;;
6828;SDS011;17930;48.592;8.868;2023-03-14T03:54:15;1.87;;;0.67;;
6828;SDS011;17930;48.592;8.868;2023-03-14T03:56:42;2.23;;;0.70;;
6828;SDS011;17930;48.592;8.868;2023-03-14T03:59:08;3.20;;;0.47;;
6828;SDS011;17930;48.592;8.868;2023-03-14T04:01:35;3.07;;;0.70;;
6828;SDS011;17930;48.592;8.868;2023-03-14T04:04:02;1.33;;;0.73;;
6828;SDS011;17930;48.592;8.868;2023-03-14T04:06:30;3.13;;;0.60;;
6828;SDS011;17930;48.592;8.868;2023-03-14T04:08:56;3.60;;;0.80;;
6828;SDS011;17930;48.592;8.868;2023-03-14T04:11:23;4.37;;;0.60;;
6828;SDS011;17930;48.592;8.868;2023-03-14T04:13:50;1.23;;;0.60;;
6828;SDS011;17930;48.592;8.868;2023-03-14T04:16:18;3.17;;;0.63;;
6828;SDS011;17930;48.592;8.868;2023-03-14T04:18:45;1.63;;;0.43;;
6828;SDS011;17930;48.592;8.868;2023-03-14T04:21:12;2.60;;;0.90;;
6828;SDS011;17930;48.592;8.868;2023-03-14T04:23:40;1.93;;;0.80;;
6828;SDS011;17930;48.592;8.868;2023-03-14T04:26:07;1.80;;;0.60;;
6828;SDS011;17930;48.592;8.868;2023-03-14T04:28:33;1.40;;;0.57;;
6828;SDS011;17930;48.592;8.868;2023-03-14T04:31:06;1.00;;;0.60;;
6828;SDS011;17930;48.592;8.868;2023-03-14T04:33:33;4.00;;;0.60;;
6828;SDS011;17930;48.592;8.868;2023-03-14T04:35:59;1.20;;;0.40;;
6828;SDS011;17930;48.592;8.868;2023-03-14T04:38:26;2.13;;;0.57;;
6828;SDS011;17930;48.592;8.868;2023-03-14T04:40:54;1.57;;;0.43;;
6828;SDS011;17930;48.592;8.868;2023-03-14T04:43:21;2.00;;;0.70;;
6828;SDS011;17930;48.592;8.868;2023-03-14T04:45:47;2.83;;;0.67;;
6828;SDS011;17930;48.592;8.868;2023-03-14T04:48:14;3.80;;;0.70;;
6828;SDS011;17930;48.592;8.868;2023-03-14T04:50:41;1.67;;;0.60;;
6828;SDS011;17930;48.592;8.868;2023-03-14T04:53:07;7.37;;;0.97;;
6828;SDS011;17930;48.592;8.868;2023-03-14T04:55:34;0.53;;;0.40;;
6828;SDS011;17930;48.592;8.868;2023-03-14T04:58:02;1.43;;;0.63;;
6828;SDS011;17930;48.592;8.868;2023-03-14T05:00:29;2.93;;;0.50;;
6828;SDS011;17930;48.592;8.868;2023-03-14T05:02:56;2.63;;;0.60;;
6828;SDS011;17930;48.592;8.868;2023-03-14T05:05:23;3.73;;;0.70;;
6828;SDS011;17930;48.592;8.868;2023-03-14T05:07:50;2.30;;;0.43;;
6828;SDS011;17930;48.592;8.868;2023-03-14T05:10:16;2.63;;;0.70;;
6828;SDS011;17930;48.592;8.868;2023-03-14T05:12:43;1.23;;;0.47;;
6828;SDS011;17930;48.592;8.868;2023-03-14T05:15:11;3.83;;;1.00;;
6828;SDS011;17930;48.592;8.868;2023-03-14T05:17:38;1.40;;;0.70;;
6828;SDS011;17930;48.592;8.868;2023-03-14T05:20:04;5.03;;;0.97;;
6828;SDS011;17930;48.592;8.868;2023-03-14T05:22:34;5.67;;;2.90;;
6828;SDS011;17930;48.592;8.868;2023-03-14T05:25:00;3.23;;;1.47;;
6828;SDS011;17930;48.592;8.868;2023-03-14T05:27:27;2.63;;;1.00;;
6828;SDS011;17930;48.592;8.868;2023-03-14T05:29:53;4.63;;;0.70;;
6828;SDS011;17930;48.592;8.868;2023-03-14T05:32:21;2.97;;;0.60;;
6828;SDS011;17930;48.592;8.868;2023-03-14T05:34:48;2.10;;;0.83;;
6828;SDS011;17930;48.592;8.868;2023-03-14T05:37:15;2.20;;;0.53;;
6828;SDS011;17930;48.592;8.868;2023-03-14T05:39:41;1.30;;;0.87;;
6828;SDS011;17930;48.592;8.868;2023-03-14T05:42:08;6.50;;;1.00;;
6828;SDS011;17930;48.592;8.868;2023-03-14T05:44:34;1.70;;;1.00;;
6828;SDS011;17930;48.592;8.868;2023-03-14T05:47:01;1.80;;;0.67;;
6828;SDS011;17930;48.592;8.868;2023-03-14T05:49:29;4.50;;;1.00;;
6828;SDS011;17930;48.592;8.868;2023-03-14T05:51:56;3.13;;;0.73;;
6828;SDS011;17930;48.592;8.868;2023-03-14T05:54:22;1.87;;;0.60;;
6828;SDS011;17930;48.592;8.868;2023-03-14T05:56:49;2.33;;;0.40;;
6828;SDS011;17930;48.592;8.868;2023-03-14T05:59:15;1.50;;;0.80;;
6828;SDS011;17930;48.592;8.868;2023-03-14T06:01:42;1.27;;;0.63;;
6828;SDS011;17930;48.592;8.868;2023-03-14T06:04:09;3.47;;;0.53;;
6828;SDS011;17930;48.592;8.868;2023-03-14T06:06:37;4.13;;;1.13;;
6828;SDS011;17930;48.592;8.868;2023-03-14T06:09:03;2.20;;;0.57;;
6828;SDS011;17930;48.592;8.868;2023-03-14T06:11:30;2.00;;;0.60;;
6828;SDS011;17930;48.592;8.868;2023-03-14T06:13:57;1.33;;;0.47;;
6828;SDS011;17930;48.592;8.868;2023-03-14T06:16:23;1.27;;;0.50;;
6828;SDS011;17930;48.592;8.868;2023-03-14T06:18:50;2.23;;;0.70;;
6828;SDS011;17930;48.592;8.868;2023-03-14T06:21:17;1.30;;;0.73;;
6828;SDS011;17930;48.592;8.868;2023-03-14T06:23:46;0.87;;;0.40;;
6828;SDS011;17930;48.592;8.868;2023-03-14T06:26:12;1.03;;;0.60;;
6828;SDS011;17930;48.592;8.868;2023-03-14T06:28:39;2.10;;;0.80;;
6828;SDS011;17930;48.592;8.868;2023-03-14T06:31:06;3.53;;;0.43;;
6828;SDS011;17930;48.592;8.868;2023-03-14T06:33:32;2.23;;;0.60;;
6828;SDS011;17930;48.592;8.868;2023-03-14T06:35:59;2.00;;;0.50;;
6828;SDS011;17930;48.592;8.868;2023-03-14T06:38:26;0.40;;;0.30;;
6828;SDS011;17930;48.592;8.868;2023-03-14T06:40:54;4.70;;;0.60;;
6828;SDS011;17930;48.592;8.868;2023-03-14T06:43:20;1.10;;;0.40;;
6828;SDS011;17930;48.592;8.868;2023-03-14T06:45:47;2.43;;;0.63;;
6828;SDS011;17930;48.592;8.868;2023-03-14T06:48:13;1.43;;;0.67;;
6828;SDS011;17930;48.592;8.868;2023-03-14T06:50:41;1.50;;;0.73;;
6828;SDS011;17930;48.592;8.868;2023-03-14T06:53:08;2.40;;;0.53;;
6828;SDS011;17930;48.592;8.868;2023-03-14T06:55:34;0.40;;;0.30;;
6828;SDS011;17930;48.592;8.868;2023-03-14T06:58:03;1.13;;;0.53;;
6828;SDS011;17930;48.592;8.868;2023-03-14T07:00:32;3.37;;;0.60;;
6828;SDS011;17930;48.592;8.868;2023-03-14T07:02:58;1.37;;;0.70;;
6828;SDS011;17930;48.592;8.868;2023-03-14T07:05:25;2.33;;;0.50;;
6828;SDS011;17930;48.592;8.868;2023-03-14T07:07:52;0.53;;;0.50;;
6828;SDS011;17930;48.592;8.868;2023-03-14T07:10:18;1.63;;;0.40;;
6828;SDS011;17930;48.592;8.868;2023-03-14T07:12:45;2.10;;;0.37;;
6828;SDS011;17930;48.592;8.868;2023-03-14T07:15:13;2.20;;;0.70;;
6828;SDS011;17930;48.592;8.868;2023-03-14T07:17:40;0.60;;;0.50;;
6828;SDS011;17930;48.592;8.868;2023-03-14T07:20:07;0.60;;;0.30;;
6828;SDS011;17930;48.592;8.868;2023-03-14T07:22:35;0.83;;;0.40;;
6828;SDS011;17930;48.592;8.868;2023-03-14T07:25:01;0.40;;;0.30;;
6828;SDS011;17930;48.592;8.868;2023-03-14T07:27:28;1.17;;;0.60;;
6828;SDS011;17930;48.592;8.868;2023-03-14T07:29:55;0.97;;;0.40;;
6828;SDS011;17930;48.592;8.868;2023-03-14T07:32:23;0.57;;;0.40;;
6828;SDS011;17930;48.592;8.868;2023-03-14T07:34:49;1.57;;;0.50;;
6828;SDS011;17930;48.592;8.868;2023-03-14T07:37:16;0.63;;;0.40;;
6828;SDS011;17930;48.592;8.868;2023-03-14T07:39:43;0.30;;;0.23;;
6828;SDS011;17930;48.592;8.868;2023-03-14T07:42:09;0.20;;;0.20;;
6828;SDS011;17930;48.592;8.868;2023-03-14T07:44:36;1.87;;;0.43;;
6828;SDS011;17930;48.592;8.868;2023-03-14T07:47:03;1.27;;;0.57;;
6828;SDS011;17930;48.592;8.868;2023-03-14T07:49:31;0.40;;;0.40;;
6828;SDS011;17930;48.592;8.868;2023-03-14T07:51:58;0.40;;;0.30;;
6828;SDS011;17930;48.592;8.868;2023-03-14T07:54:24;1.63;;;0.50;;
6828;SDS011;17930;48.592;8.868;2023-03-14T07:56:51;1.53;;;0.40;;
6828;SDS011;17930;48.592;8.868;2023-03-14T07:59:18;2.07;;;0.30;;
6828;SDS011;17930;48.592;8.868;2023-03-14T08:01:45;0.87;;;0.37;;
6828;SDS011;17930;48.592;8.868;2023-03-14T08:04:11;0.83;;;0.30;;
6828;SDS011;17930;48.592;8.868;2023-03-14T08:06:39;1.40;;;0.40;;
6828;SDS011;17930;48.592;8.868;2023-03-14T08:09:06;0.87;;;0.40;;
6828;SDS011;17930;48.592;8.868;2023-03-14T08:11:34;1.07;;;0.47;;
6828;SDS011;17930;48.592;8.868;2023-03-14T08:14:00;1.67;;;0.47;;
6828;SDS011;17930;48.592;8.868;2023-03-14T08:16:27;0.60;;;0.30;;
6828;SDS011;17930;48.592;8.868;2023-03-14T08:18:54;1.87;;;0.50;;
6828;SDS011;17930;48.592;8.868;2023-03-14T08:21:21;1.47;;;0.60;;
6828;SDS011;17930;48.592;8.868;2023-03-14T08:23:49;0.37;;;0.30;;
6828;SDS011;17930;48.592;8.868;2023-03-14T08:26:15;1.10;;;0.40;;
6828;SDS011;17930;48.592;8.868;2023-03-14T08:28:42;3.60;;;0.23;;
6828;SDS011;17930;48.592;8.868;2023-03-14T08:31:08;0.77;;;0.27;;
6828;SDS011;17930;48.592;8.868;2023-03-14T08:33:35;3.60;;;0.30;;
6828;SDS011;17930;48.592;8.868;2023-03-14T08:36:03;2.20;;;0.40;;
6828;SDS011;17930;48.592;8.868;2023-03-14T08:38:30;2.40;;;0.50;;
6828;SDS011;17930;48.592;8.868;2023-03-14T08:40:58;0.23;;;0.20;;
6828;SDS011;17930;48.592;8.868;2023-03-14T08:43:26;1.20;;;0.30;;
6828;SDS011;17930;48.592;8.868;2023-03-14T08:45:56;0.20;;;0.20;;
6828;SDS011;17930;48.592;8.868;2023-03-14T08:48:24;1.20;;;0.23;;
6828;SDS011;17930;48.592;8.868;2023-03-14T08:50:51;0.67;;;0.20;;
6828;SDS011;17930;48.592;8.868;2023-03-14T08:53:17;0.20;;;0.20;;
6828;SDS011;17930;48.592;8.868;2023-03-14T08:55:46;1.17;;;0.40;;
6828;SDS011;17930;48.592;8.868;2023-03-14T08:58:14;0.33;;;0.33;;
6828;SDS011;17930;48.592;8.868;2023-03-14T09:00:41;0.30;;;0.30;;
6828;SDS011;17930;48.592;8.868;2023-03-14T09:03:10;0.97;;;0.30;;
6828;SDS011;17930;48.592;8.868;2023-03-14T09:05:36;0.47;;;0.40;;
6828;SDS011;17930;48.592;8.868;2023-03-14T09:08:03;1.10;;;0.30;;
6828;SDS011;17930;48.592;8.868;2023-03-14T09:10:30;2.00;;;0.47;;
6828;SDS011;17930;48.592;8.868;2023-03-14T09:12:57;1.40;;;0.30;;
6828;SDS011;17930;48.592;8.868;2023-03-14T09:15:25;0.70;;;0.20;;
6828;SDS011;17930;48.592;8.868;2023-03-14T09:17:52;1.13;;;0.37;;
6828;SDS011;17930;48.592;8.868;2023-03-14T09:20:18;0.20;;;0.20;;
6828;SDS011;17930;48.592;8.868;2023-03-14T09:22:47;0.50;;;0.37;;
6828;SDS011;17930;48.592;8.868;2023-03-14T09:25:14;0.10;;;0.10;;
6828;SDS011;17930;48.592;8.868;2023-03-14T09:27:41;1.37;;;0.50;;
6828;SDS011;17930;48.592;8.868;2023-03-14T09:30:08;0.20;;;0.20;;
6828;SDS011;17930;48.592;8.868;2023-03-14T09:32:37;0.73;;;0.40;;
6828;SDS011;17930;48.592;8.868;2023-03-14T09:35:04;1.17;;;0.20;;
6828;SDS011;17930;48.592;8.868;2023-03-14T09:37:31;0.20;;;0.20;;
6828;SDS011;17930;48.592;8.868;2023-03-14T09:39:58;0.20;;;0.20;;
6828;SDS011;17930;48.592;8.868;2023-03-14T09:42:25;0.33;;;0.30;;
6828;SDS011;17930;48.592;8.868;2023-03-14T09:44:55;0.57;;;0.40;;
6828;SDS011;17930;48.592;8.868;2023-03-14T09:47:25;0.93;;;0.57;;
6828;SDS011;17930;48.592;8.868;2023-03-14T09:49:55;0.20;;;0.20;;
6828;SDS011;17930;48.592;8.868;2023-03-14T09:52:23;0.73;;;0.50;;
6828;SDS011;17930;48.592;8.868;2023-03-14T09:54:53;1.20;;;0.63;;
6828;SDS011;17930;48.592;8.868;2023-03-14T09:57:23;2.07;;;0.60;;
6828;SDS011;17930;48.592;8.868;2023-03-14T09:59:51;1.30;;;0.50;;
6828;SDS011;17930;48.592;8.868;2023-03-14T10:02:21;1.47;;;0.40;;
6828;SDS011;17930;48.592;8.868;2023-03-14T10:04:49;0.80;;;0.40;;
6828;SDS011;17930;48.592;8.868;2023-03-14T10:07:21;0.60;;;0.30;;
6828;SDS011;17930;48.592;8.868;2023-03-14T10:09:54;0.30;;;0.30;;
6828;SDS011;17930;48.592;8.868;2023-03-14T10:12:29;0.50;;;0.30;;
6828;SDS011;17930;48.592;8.868;2023-03-14T10:14:57;0.20;;;0.20;;
6828;SDS011;17930;48.592;8.868;2023-03-14T10:17:29;0.40;;;0.30;;
6828;SDS011;17930;48.592;8.868;2023-03-14T10:19:59;0.53;;;0.37;;
6828;SDS011;17930;48.592;8.868;2023-03-14T10:22:28;0.37;;;0.37;;
6828;SDS011;17930;48.592;8.868;2023-03-14T10:24:57;0.20;;;0.20;;
6828;SDS011;17930;48.592;8.868;2023-03-14T10:27:28;0.50;;;0.20;;
6828;SDS011;17930;48.592;8.868;2023-03-14T10:29:57;0.30;;;0.30;;
6828;SDS011;17930;48.592;8.868;2023-03-14T10:32:28;0.30;;;0.30;;
6828;SDS011;17930;48.592;8.868;2023-03-14T10:35:06;0.80;;;0.30;;
6828;SDS011;17930;48.592;8.868;2023-03-14T10:37:50;0.70;;;0.30;;
6828;SDS011;17930;48.592;8.868;2023-03-14T10:40:24;0.20;;;0.20;;
6828;SDS011;17930;48.592;8.868;2023-03-14T10:42:54;0.53;;;0.20;;
6828;SDS011;17930;48.592;8.868;2023-03-14T10:45:25;0.70;;;0.20;;
6828;SDS011;17930;48.592;8.868;2023-03-14T10:47:57;0.53;;;0.30;;
6828;SDS011;17930;48.592;8.868;2023-03-14T10:50:27;1.57;;;0.40;;
6828;SDS011;17930;48.592;8.868;2023-03-14T10:52:56;0.93;;;0.40;;
6828;SDS011;17930;48.592;8.868;2023-03-14T10:55:39;0.60;;;0.50;;
6828;SDS011;17930;48.592;8.868;2023-03-14T10:58:17;0.83;;;0.60;;
6828;SDS011;17930;48.592;8.868;2023-03-14T11:00:50;1.10;;;0.40;;
6828;SDS011;17930;48.592;8.868;2023-03-14T11:06:10;0.53;;;0.47;;
6828;SDS011;17930;48.592;8.868;2023-03-14T11:08:44;0.30;;;0.30;;
6828;SDS011;17930;48.592;8.868;2023-03-14T11:11:18;0.33;;;0.30;;
6828;SDS011;17930;48.592;8.868;2023-03-14T11:13:55;0.30;;;0.30;;
6828;SDS011;17930;48.592;8.868;2023-03-14T11:16:31;0.30;;;0.30;;
6828;SDS011;17930;48.592;8.868;2023-03-14T11:19:10;0.30;;;0.30;;
6828;SDS011;17930;48.592;8.868;2023-03-14T11:21:50;0.97;;;0.43;;
6828;SDS011;17930;48.592;8.868;2023-03-14T11:24:27;2.73;;;0.50;;
6828;SDS011;17930;48.592;8.868;2023-03-14T11:27:21;0.20;;;0.20;;
6828;SDS011;17930;48.592;8.868;2023-03-14T11:29:54;0.20;;;0.20;;
6828;SDS011;17930;48.592;8.868;2023-03-14T11:32:31;0.27;;;0.20;;
6828;SDS011;17930;48.592;8.868;2023-03-14T11:35:07;0.53;;;0.40;;
6828;SDS011;17930;48.592;8.868;2023-03-14T11:37:44;0.50;;;0.40;;
6828;SDS011;17930;48.592;8.868;2023-03-14T11:40:14;0.93;;;0.53;;
6828;SDS011;17930;48.592;8.868;2023-03-14T11:42:44;0.20;;;0.20;;
6828;SDS011;17930;48.592;8.868;2023-03-14T11:45:17;1.00;;;0.40;;
6828;SDS011;17930;48.592;8.868;2023-03-14T11:47:49;0.47;;;0.40;;
6828;SDS011;17930;48.592;8.868;2023-03-14T11:50:22;0.53;;;0.27;;
6828;SDS011;17930;48.592;8.868;2023-03-14T11:52:52;0.83;;;0.30;;
6828;SDS011;17930;48.592;8.868;2023-03-14T11:55:25;0.70;;;0.47;;
6828;SDS011;17930;48.592;8.868;2023-03-14T11:57:58;0.97;;;0.30;;
6828;SDS011;17930;48.592;8.868;2023-03-14T12:00:28;0.20;;;0.20;;
6828;SDS011;17930;48.592;8.868;2023-03-14T12:02:57;1.93;;;0.57;;
6828;SDS011;17930;48.592;8.868;2023-03-14T12:05:33;0.40;;;0.30;;
6828;SDS011;17930;48.592;8.868;2023-03-14T12:08:19;0.10;;;0.10;;
6828;SDS011;17930;48.592;8.868;2023-03-14T12:10:59;1.20;;;0.20;;
6828;SDS011;17930;48.592;8.868;2023-03-14T12:13:31;0.10;;;0.10;;
6828;SDS011;17930;48.592;8.868;2023-03-14T12:16:04;0.20;;;0.20;;
6828;SDS011;17930;48.592;8.868;2023-03-14T12:18:34;0.20;;;0.20;;
6828;SDS011;17930;48.592;8.868;2023-03-14T12:21:04;0.20;;;0.20;;
6828;SDS011;17930;48.592;8.868;2023-03-14T12:23:34;0.93;;;0.43;;
6828;SDS011;17930;48.592;8.868;2023-03-14T12:26:12;0.30;;;0.30;;
6828;SDS011;17930;48.592;8.868;2023-03-14T12:28:42;2.23;;;0.47;;
6828;SDS011;17930;48.592;8.868;2023-03-14T12:31:35;0.30;;;0.30;;
6828;SDS011;17930;48.592;8.868;2023-03-14T12:34:03;0.90;;;0.40;;
6828;SDS011;17930;48.592;8.868;2023-03-14T12:36:52;1.80;;;0.40;;
6828;SDS011;17930;48.592;8.868;2023-03-14T12:39:29;0.33;;;0.30;;
6828;SDS011;17930;48.592;8.868;2023-03-14T12:42:04;0.43;;;0.20;;
6828;SDS011;17930;48.592;8.868;2023-03-14T12:44:39;1.17;;;0.20;;
6828;SDS011;17930;48.592;8.868;2023-03-14T12:50:13;1.00;;;0.33;;
6828;SDS011;17930;48.592;8.868;2023-03-14T12:52:47;2.20;;;0.50;;
6828;SDS011;17930;48.592;8.868;2023-03-14T12:55:28;0.90;;;0.20;;
6828;SDS011;17930;48.592;8.868;2023-03-14T12:58:05;0.30;;;0.30;;
6828;SDS011;17930;48.592;8.868;2023-03-14T13:00:39;0.50;;;0.50;;
6828;SDS011;17930;48.592;8.868;2023-03-14T13:03:12;1.53;;;0.40;;
6828;SDS011;17930;48.592;8.868;2023-03-14T13:05:54;0.33;;;0.30;;
6828;SDS011;17930;48.592;8.868;2023-03-14T13:08:33;2.53;;;0.53;;
6828;SDS011;17930;48.592;8.868;2023-03-14T13:11:02;0.70;;;0.50;;
6828;SDS011;17930;48.592;8.868;2023-03-14T13:13:35;1.83;;;0.40;;
6828;SDS011;17930;48.592;8.868;2023-03-14T13:16:09;0.87;;;0.60;;
6828;SDS011;17930;48.592;8.868;2023-03-14T13:18:41;2.20;;;0.63;;
6828;SDS011;17930;48.592;8.868;2023-03-14T13:21:13;1.33;;;1.00;;
6828;SDS011;17930;48.592;8.868;2023-03-14T13:23:58;2.67;;;1.13;;
6828;SDS011;17930;48.592;8.868;2023-03-14T13:26:32;2.70;;;0.60;;
6828;SDS011;17930;48.592;8.868;2023-03-14T13:29:09;1.63;;;0.50;;
6828;SDS011;17930;48.592;8.868;2023-03-14T13:31:43;0.27;;;0.27;;
6828;SDS011;17930;48.592;8.868;2023-03-14T13:34:11;2.43;;;0.80;;
6828;SDS011;17930;48.592;8.868;2023-03-14T13:36:37;1.47;;;0.50;;
6828;SDS011;17930;48.592;8.868;2023-03-14T13:39:06;0.80;;;0.63;;
6828;SDS011;17930;48.592;8.868;2023-03-14T13:41:39;3.23;;;0.80;;
6828;SDS011;17930;48.592;8.868;2023-03-14T13:44:07;2.73;;;0.60;;
6828;SDS011;17930;48.592;8.868;2023-03-14T13:46:40;0.50;;;0.40;;
6828;SDS011;17930;48.592;8.868;2023-03-14T13:49:09;0.70;;;0.50;;
6828;SDS011;17930;48.592;8.868;2023-03-14T13:51:39;7.57;;;0.80;;
6828;SDS011;17930;48.592;8.868;2023-03-14T13:54:12;2.67;;;0.80;;
6828;SDS011;17930;48.592;8.868;2023-03-14T13:56:43;1.50;;;0.97;;
6828;SDS011;17930;48.592;8.868;2023-03-14T13:59:22;0.80;;;0.60;;
6828;SDS011;17930;48.592;8.868;2023-03-14T14:01:49;1.23;;;0.70;;
6828;SDS011;17930;48.592;8.868;2023-03-14T14:04:18;1.83;;;0.50;;
6828;SDS011;17930;48.592;8.868;2023-03-14T14:06:47;0.87;;;0.50;;
6828;SDS011;17930;48.592;8.868;2023-03-14T14:09:17;1.30;;;0.60;;
6828;SDS011;17930;48.592;8.868;2023-03-14T14:11:47;0.70;;;0.50;;
6828;SDS011;17930;48.592;8.868;2023-03-14T14:14:20;2.67;;;0.60;;
6828;SDS011;17930;48.592;8.868;2023-03-14T14:16:51;1.97;;;0.87;;
6828;SDS011;17930;48.592;8.868;2023-03-14T14:19:19;4.20;;;0.60;;
6828;SDS011;17930;48.592;8.868;2023-03-14T14:21:49;1.33;;;0.67;;
6828;SDS011;17930;48.592;8.868;2023-03-14T14:24:17;1.60;;;0.43;;
6828;SDS011;17930;48.592;8.868;2023-03-14T14:26:46;0.67;;;0.47;;
6828;SDS011;17930;48.592;8.868;2023-03-14T14:29:20;1.17;;;0.50;;
6828;SDS011;17930;48.592;8.868;2023-03-14T14:32:03;1.27;;;0.40;;
6828;SDS011;17930;48.592;8.868;2023-03-14T14:34:40;0.77;;;0.50;;
6828;SDS011;17930;48.592;8.868;2023-03-14T14:37:18;3.23;;;0.70;;
6828;SDS011;17930;48.592;8.868;2023-03-14T14:39:47;4.17;;;0.70;;
6828;SDS011;17930;48.592;8.868;2023-03-14T14:42:16;2.50;;;0.60;;
6828;SDS011;17930;48.592;8.868;2023-03-14T14:44:48;1.37;;;0.60;;
6828;SDS011;17930;48.592;8.868;2023-03-14T14:47:19;1.23;;;0.50;;
6828;SDS011;17930;48.592;8.868;2023-03-14T14:49:48;1.23;;;0.60;;
6828;SDS011;17930;48.592;8.868;2023-03-14T14:52:16;0.73;;;0.50;;
6828;SDS011;17930;48.592;8.868;2023-03-14T14:54:45;1.93;;;0.50;;
6828;SDS011;17930;48.592;8.868;2023-03-14T14:57:17;0.80;;;0.60;;
6828;SDS011;17930;48.592;8.868;2023-03-14T14:59:47;0.90;;;0.60;;
6828;SDS011;17930;48.592;8.868;2023-03-14T15:02:24;1.77;;;0.93;;
6828;SDS011;17930;48.592;8.868;2023-03-14T15:04:55;0.80;;;0.80;;
6828;SDS011;17930;48.592;8.868;2023-03-14T15:07:22;1.80;;;0.50;;
6828;SDS011;17930;48.592;8.868;2023-03-14T15:09:48;1.50;;;0.50;;
6828;SDS011;17930;48.592;8.868;2023-03-14T15:12:15;1.10;;;0.50;;
6828;SDS011;17930;48.592;8.868;2023-03-14T15:14:41;1.43;;;0.80;;
6828;SDS011;17930;48.592;8.868;2023-03-14T15:17:10;1.23;;;0.40;;
6828;SDS011;17930;48.592;8.868;2023-03-14T15:19:40;0.83;;;0.50;;
6828;SDS011;17930;48.592;8.868;2023-03-14T15:22:10;0.93;;;0.50;;